createdAt,value
2022-12-31T00:00:20.079Z,5.80
2022-12-31T00:05:24.192Z,5.33
2022-12-31T00:10:27.621Z,5.80
2022-12-31T00:15:32.532Z,5.90
2022-12-31T00:20:36.508Z,5.53
2022-12-31T00:25:39.931Z,5.43
2022-12-31T00:30:44.737Z,5.60
2022-12-31T00:35:48.133Z,6.03
2022-12-31T00:40:51.633Z,5.57
2022-12-31T00:45:56.595Z,5.20
2022-12-31T00:51:00.714Z,5.23
2022-12-31T00:56:07.036Z,5.53
2022-12-31T01:01:13.115Z,5.10
2022-12-31T01:06:16.817Z,5.40
2022-12-31T01:11:22.734Z,5.33
2022-12-31T01:16:29.638Z,5.20
2022-12-31T01:21:33.953Z,5.00
2022-12-31T01:26:38.195Z,4.60
2022-12-31T01:31:43.094Z,5.13
2022-12-31T01:36:46.649Z,5.00
2022-12-31T01:41:51.030Z,5.17
2022-12-31T01:46:58.370Z,4.47
2022-12-31T01:52:08.880Z,4.80
2022-12-31T01:57:13.186Z,5.20
2022-12-31T02:02:18.576Z,5.97
2022-12-31T02:07:22.649Z,4.83
2022-12-31T02:12:26.102Z,4.90
2022-12-31T02:17:58.303Z,5.20
2022-12-31T02:23:34.617Z,5.17
2022-12-31T02:28:57.909Z,4.77
2022-12-31T02:34:08.946Z,5.40
2022-12-31T02:39:14.097Z,5.67
2022-12-31T02:44:24.369Z,5.80
2022-12-31T02:49:36.664Z,5.47
2022-12-31T02:54:49.804Z,5.20
2022-12-31T03:00:16.541Z,5.13
2022-12-31T03:05:26.419Z,5.17
2022-12-31T03:10:29.952Z,5.50
2022-12-31T03:15:35.251Z,5.30
2022-12-31T03:20:58.910Z,5.70
2022-12-31T03:26:03.001Z,5.20
2022-12-31T03:31:07.223Z,4.83
2022-12-31T03:36:14.709Z,4.73
2022-12-31T03:41:18.119Z,4.77
2022-12-31T03:46:21.580Z,4.70
2022-12-31T03:51:26.483Z,5.10
2022-12-31T03:56:29.954Z,5.27
2022-12-31T04:01:33.495Z,5.30
2022-12-31T04:06:38.382Z,4.97
2022-12-31T04:11:42.120Z,5.57
2022-12-31T04:16:46.048Z,5.00
2022-12-31T04:21:51.288Z,5.10
2022-12-31T04:26:54.738Z,5.00
2022-12-31T04:31:58.123Z,4.63
2022-12-31T04:37:03.510Z,5.17
2022-12-31T04:42:07.040Z,4.70
2022-12-31T04:47:10.733Z,4.93
2022-12-31T04:52:15.883Z,4.70
2022-12-31T04:57:19.294Z,4.03
2022-12-31T05:02:22.795Z,3.87
2022-12-31T05:07:27.745Z,5.17
2022-12-31T05:12:31.195Z,5.40
2022-12-31T05:17:34.606Z,5.37
2022-12-31T05:22:39.443Z,6.97
2022-12-31T05:27:42.977Z,6.17
2022-12-31T05:32:47.416Z,5.87
2022-12-31T05:37:52.506Z,5.73
2022-12-31T05:42:56.254Z,5.43
2022-12-31T05:47:59.757Z,5.20
2022-12-31T05:53:04.599Z,4.50
2022-12-31T05:58:07.980Z,4.50
2022-12-31T06:03:12.031Z,4.40
2022-12-31T06:08:16.977Z,4.60
2022-12-31T06:13:20.374Z,6.67
2022-12-31T06:18:23.864Z,6.17
2022-12-31T06:23:28.762Z,6.70
2022-12-31T06:28:32.233Z,6.97
2022-12-31T06:33:36.592Z,7.93
2022-12-31T06:38:43.269Z,7.80
2022-12-31T06:43:47.193Z,6.13
2022-12-31T06:48:50.666Z,6.13
2022-12-31T06:53:55.498Z,5.43
2022-12-31T06:58:59.462Z,5.70
2022-12-31T07:04:14.154Z,4.90
2022-12-31T07:09:25.387Z,5.00
2022-12-31T07:14:37.552Z,4.80
2022-12-31T07:19:57.123Z,5.27
2022-12-31T07:25:03.635Z,4.83
2022-12-31T07:30:12.698Z,5.40
2022-12-31T07:35:23.189Z,4.30
2022-12-31T07:40:39.628Z,4.80
2022-12-31T07:45:49.536Z,5.00
2022-12-31T07:50:55.400Z,4.87
2022-12-31T07:56:02.152Z,4.93
2022-12-31T08:01:06.692Z,5.97
2022-12-31T08:06:17.321Z,6.47
2022-12-31T08:11:29.844Z,6.40
2022-12-31T08:16:33.880Z,5.90
2022-12-31T08:21:47.620Z,6.50
2022-12-31T08:27:03.254Z,6.37
2022-12-31T08:32:14.467Z,6.60
2022-12-31T08:37:28.763Z,6.77
2022-12-31T08:42:41.399Z,6.27
2022-12-31T08:47:57.983Z,6.67
2022-12-31T08:53:03.783Z,6.80
2022-12-31T08:58:21.680Z,6.30
2022-12-31T09:03:50.594Z,6.70
2022-12-31T09:09:02.733Z,6.67
2022-12-31T09:14:27.001Z,6.20
2022-12-31T09:19:30.452Z,5.90
2022-12-31T09:24:34.818Z,5.50
2022-12-31T09:29:56.743Z,5.80
2022-12-31T09:35:07.563Z,5.40
2022-12-31T09:40:41.860Z,5.90
2022-12-31T09:46:23.409Z,5.00
2022-12-31T09:51:33.848Z,5.87
2022-12-31T09:56:38.458Z,5.10
2022-12-31T10:01:51.854Z,5.17
2022-12-31T10:07:09.567Z,6.30
2022-12-31T10:12:49.186Z,6.10
2022-12-31T10:18:05.228Z,5.80
2022-12-31T10:23:35.109Z,5.97
2022-12-31T10:28:50.351Z,6.20
2022-12-31T10:34:07.508Z,5.50
2022-12-31T10:39:25.243Z,4.60
2022-12-31T10:45:22.096Z,4.60
2022-12-31T10:50:55.366Z,4.60
2022-12-31T10:56:39.822Z,4.73
2022-12-31T11:01:50.055Z,4.50
2022-12-31T11:07:30.658Z,5.13
2022-12-31T11:13:12.866Z,5.07
2022-12-31T11:18:27.196Z,6.03
2022-12-31T11:29:05.712Z,4.80
2022-12-31T14:30:47.185Z,4.90
2022-12-31T14:36:14.195Z,5.83
2022-12-31T14:41:33.297Z,5.37
2022-12-31T14:46:48.904Z,4.37
2022-12-31T14:51:52.633Z,5.53
2022-12-31T14:56:56.109Z,5.00
2022-12-31T15:02:01.044Z,4.67
2022-12-31T15:07:13.185Z,4.40
2022-12-31T15:12:30.453Z,4.63
2022-12-31T15:17:49.489Z,4.50
2022-12-31T15:22:54.403Z,5.17
2022-12-31T15:28:00.325Z,5.37
2022-12-31T15:33:10.122Z,5.00
2022-12-31T15:38:32.805Z,4.87
2022-12-31T15:43:42.667Z,4.70
2022-12-31T15:48:56.552Z,5.57
2022-12-31T15:54:01.486Z,4.40
2022-12-31T15:59:12.643Z,4.77
2022-12-31T16:04:21.196Z,4.53
2022-12-31T16:09:27.257Z,4.70
2022-12-31T16:14:37.230Z,4.33
2022-12-31T16:19:46.259Z,4.70
2022-12-31T16:25:29.043Z,4.10
2022-12-31T16:30:22.534Z,4.23
2022-12-31T16:35:29.897Z,4.13
2022-12-31T16:40:33.338Z,4.50
2022-12-31T16:45:38.792Z,4.77
2022-12-31T16:50:46.711Z,5.07
2022-12-31T16:55:56.465Z,4.90
2022-12-31T17:01:09.048Z,3.83
2022-12-31T17:06:18.226Z,4.53
2022-12-31T17:11:25.799Z,4.93
2022-12-31T17:16:29.429Z,5.67
2022-12-31T17:21:35.068Z,5.10
2022-12-31T17:26:39.993Z,5.10
2022-12-31T17:32:00.123Z,5.10
2022-12-31T17:37:18.474Z,4.90
2022-12-31T17:42:32.096Z,5.07
2022-12-31T17:47:37.855Z,5.03
2022-12-31T17:52:42.708Z,7.00
2022-12-31T17:57:51.921Z,6.93
2022-12-31T18:02:55.475Z,6.80
2022-12-31T18:08:00.685Z,5.87
2022-12-31T18:13:05.965Z,6.13
2022-12-31T18:18:24.468Z,6.40
2022-12-31T18:23:32.572Z,6.83
2022-12-31T18:28:36.261Z,6.20
2022-12-31T18:33:39.634Z,8.37
2022-12-31T18:38:44.747Z,7.10
2022-12-31T18:43:48.947Z,6.93
2022-12-31T18:48:52.588Z,6.77
2022-12-31T18:53:57.833Z,8.17
2022-12-31T18:59:02.645Z,10.43
2022-12-31T19:04:13.690Z,15.50
2022-12-31T19:09:44.114Z,15.27
2022-12-31T19:14:42.270Z,17.37
2022-12-31T19:19:45.695Z,19.53
2022-12-31T19:24:50.488Z,20.20
2022-12-31T19:29:53.863Z,18.47
2022-12-31T19:34:57.474Z,18.67
2022-12-31T19:40:02.424Z,18.17
2022-12-31T19:45:07.923Z,17.57
2022-12-31T19:50:16.693Z,19.57
2022-12-31T19:55:25.143Z,19.13
2022-12-31T20:00:28.598Z,21.27
2022-12-31T20:05:32.061Z,18.67
2022-12-31T20:10:38.004Z,18.57
2022-12-31T20:15:47.799Z,18.67
2022-12-31T20:20:55.768Z,16.70
2022-12-31T20:26:01.688Z,16.00
2022-12-31T20:31:07.148Z,16.40
2022-12-31T20:36:14.182Z,16.60
2022-12-31T20:41:20.633Z,15.70
2022-12-31T20:46:25.975Z,16.47
2022-12-31T20:51:31.287Z,15.27
2022-12-31T20:56:38.533Z,15.37
2022-12-31T21:02:19.353Z,15.20
2022-12-31T21:07:05.795Z,14.77
2022-12-31T21:12:30.110Z,13.27
2022-12-31T21:17:33.884Z,14.20
2022-12-31T21:22:37.624Z,13.50
2022-12-31T21:27:42.450Z,13.30
2022-12-31T21:32:46.265Z,14.53
2022-12-31T21:37:58.119Z,13.13
2022-12-31T21:43:05.194Z,14.73
2022-12-31T21:48:25.168Z,20.73
2022-12-31T21:53:36.302Z,18.37
2022-12-31T21:58:44.009Z,20.63
2022-12-31T22:03:47.960Z,17.03
2022-12-31T22:08:53.262Z,12.30
2022-12-31T22:13:58.750Z,11.60
2022-12-31T22:19:02.215Z,10.47
2022-12-31T22:24:05.900Z,11.17
2022-12-31T22:29:10.796Z,11.73
2022-12-31T22:34:14.445Z,10.53
2022-12-31T22:39:43.875Z,11.50
2022-12-31T22:44:42.765Z,11.27
2022-12-31T22:49:46.687Z,12.40
2022-12-31T22:54:50.165Z,30.67
2022-12-31T22:59:55.066Z,21.93
2022-12-31T23:05:15.931Z,14.37
2022-12-31T23:10:51.790Z,16.27
2022-12-31T23:16:14.188Z,13.07
2022-12-31T23:21:34.848Z,16.67
2022-12-31T23:26:38.277Z,12.93
2022-12-31T23:31:43.176Z,11.20
2022-12-31T23:36:46.647Z,10.07
2022-12-31T23:41:50.081Z,10.47
2022-12-31T23:46:55.349Z,11.63
2022-12-31T23:51:59.284Z,12.00
2022-12-31T23:57:02.699Z,14.63
